Xi Ujimqin Qi, China
Current Conditions -  °F | °C
As of 4:00 AM on Thursday 29 Jan 2015 (Local Time) from ZBAA Reporting Station
Clear Clear  
Wind Chill: 19°   Ceiling: Unl
Heat Index: 28°   Visibility: 4mi
Dew Point: 16°   Wind: 11mph
Humidity: 59%   Direction: 220°SW
Pressure: 30.39"   Gusts: NA
Location:  44.58°N, 117.6°E
Report Text: ZBAA 282000Z 22005MPS 6000 NSC M02/M09 Q1029 NOSIG
Loading
Personal Weather Stations






























Interactive Weather Map New forecast layout! Learn more

10-Day Weather Forecast

Advertisements
Track Severe Weather on mobile